« Back
NWS Peachtree City, Ga » Text Product » CSG Terminal Aerodrome Forecast


Printer-friendly Version
Current Version              Previous Versions:   1  2  3  4  5  6  7  8  9  

Terminal Aerodrome Forecast

856
FTUS42 KFFC 241124 CCA
TAFCSG
TAF COR
KCSG 241124Z 2412/2512 10007KT P6SM BKN012
     FM241500 11007KT P6SM SCT025
     FM241700 12007KT P6SM BKN040
     FM242200 11007KT P6SM SCT050
     FM250240 12010KT P6SM BKN080
     FM250700 13009G14KT P6SM BKN012
     FM250900 12006KT P6SM SCT008 BKN012=



USA.gov is the U.S. government's official web portal to all federal, state and local government web resources and services.